Time;durP1;ratioP1;P1;durP2;ratioP2;P2;SDS_P1;SDS_P2;PMS_P1;PMS_P2;Temp;Humidity;BMP_temperature;BMP_pressure;BME280_temperature;BME280_humidity;BME280_pressure;Samples;Min_cycle;Max_cycle;Signal;HPM_P1;HPM_P2
2022/07/31 00:02:45;;;;;;;;;;;;;;;;;;;;;
2022/07/31 03:42:09;;;;;;;;;;;;;;;11.40;100.00;99811.34;5020871;28;20426;-87
2022/07/31 03:44:36;;;;;;;;;;;;;;;11.61;100.00;99811.28;5031796;28;19921;-85
2022/07/31 03:47:01;;;;;;;;;;;;;;;11.64;100.00;99808.47;5012333;28;19918;-85
2022/07/31 03:49:30;;;;;;;;;;;;;;;11.43;100.00;99815.66;5031940;28;19928;-86
2022/07/31 03:52:08;;;;;;;;;;;;;;;;;;;;;
2022/07/31 03:54:36;;;;;;;;;;;;;;;11.71;100.00;99807.28;5031292;28;19928;-86
2022/07/31 03:57:02;;;;;;;;;;;;;;;11.55;100.00;99811.56;5014278;28;20327;-85
2022/07/31 03:59:28;;;;;;;;;;;;;;;11.40;100.00;99805.19;5031780;28;19954;-85
2022/07/31 04:01:53;;;;;;;;;;;;;;;11.57;100.00;99807.06;5013028;28;19975;-84
2022/07/31 04:04:21;;;;;;;;;;;;;;;11.59;100.00;99810.50;5014028;28;19922;-85
2022/07/31 04:06:49;;;;;;;;;;;;;;;11.44;100.00;99802.31;5031884;28;20391;-85
2022/07/31 04:09:14;;;;;;;;;;;;;;;11.42;100.00;99809.50;5031024;28;20595;-85
2022/07/31 04:11:39;;;;;;;;;;;;;;;11.64;100.00;99805.81;5013974;28;19939;-85
2022/07/31 04:14:07;;;;;;;;;;;;;;;11.55;100.00;99807.13;5031883;28;20322;-85
2022/07/31 04:16:35;;;;;;;;;;;;;;;11.38;100.00;99813.19;5030388;28;20003;-85
2022/07/31 04:19:03;;;;;;;;;;;;;;;11.53;100.00;99816.06;5013940;28;19963;-85
2022/07/31 04:21:31;;;;;;;;;;;;;;;11.61;100.00;99805.97;5031447;28;19917;-85
2022/07/31 04:23:59;;;;;;;;;;;;;;;11.49;100.00;99814.50;5031795;28;20451;-85
2022/07/31 04:26:24;;;;;;;;;;;;;;;11.34;100.00;99810.75;5014005;28;19918;-85
2022/07/31 04:28:52;;;;;;;;;;;;;;;11.63;100.00;99807.63;5031892;28;19920;-85
2022/07/31 04:31:17;;;;;;;;;;;;;;;11.55;100.00;99815.09;5030373;28;20340;-85
2022/07/31 04:34:10;;;;;;;;;;;;;;;;;;;;;
2022/07/31 04:36:58;;;;;;;;;;;;;;;11.33;100.00;99822.28;4988936;28;19932;-89
2022/07/31 04:39:53;;;;;;;;;;;;;;;;;;;;;
2022/07/31 04:42:29;;;;;;;;;;;;;;;11.63;100.00;99809.41;5031043;28;19921;-86
2022/07/31 04:45:00;;;;;;;;;;;;;;;11.54;100.00;99817.81;5013576;28;20376;-87
2022/07/31 12:37:47;;;;;;;;;;;;;;;12.13;100.00;99624.72;5677315;23;20039;-91
2022/07/31 12:40:27;;;;;;;;;;;;;;;12.08;100.00;99621.44;5031314;28;20291;-89
2022/07/31 12:43:21;;;;;;;;;;;;;;;12.31;100.00;99623.72;5030885;28;20418;-91
2022/07/31 12:45:50;;;;;;;;;;;;;;;12.23;100.00;99609.16;5006810;28;19921;-92
2022/07/31 12:48:15;;;;;;;;;;;;;;;12.02;100.00;99614.63;5013885;28;19925;-91
2022/07/31 12:50:41;;;;;;;;;;;;;;;12.22;100.00;99613.59;5031649;28;20265;-91
2022/07/31 12:53:06;;;;;;;;;;;;;;;12.21;100.00;99611.03;5030431;28;19924;-92
2022/07/31 12:55:40;;;;;;;;;;;;;;;12.06;100.00;99610.88;5031965;28;19989;-89
2022/07/31 13:01:05;;;;;;;;;;;;;;;12.27;100.00;99616.00;5009646;23;19991;-90
2022/07/31 13:03:30;;;;;;;;;;;;;;;12.20;100.00;99610.16;4986660;28;20895;-92
2022/07/31 13:05:55;;;;;;;;;;;;;;;11.96;100.00;99594.53;5011779;28;20032;-90
2022/07/31 13:08:21;;;;;;;;;;;;;;;12.28;100.00;99594.66;5010324;28;20292;-90
2022/07/31 13:11:20;;;;;;;;;;;;;;;12.17;100.00;99579.31;5011309;28;19917;-89
2022/07/31 13:14:14;;;;;;;;;;;;;;;;;;;;;
2022/07/31 13:16:40;;;;;;;;;;;;;;;12.02;100.00;99585.41;4993940;23;20295;-91
2022/07/31 13:19:27;;;;;;;;;;;;;;;12.17;100.00;99594.38;4968549;28;20020;-90
2022/07/31 13:21:52;;;;;;;;;;;;;;;12.20;100.00;99590.72;4938118;29;19931;-90
2022/07/31 13:24:18;;;;;;;;;;;;;;;12.12;100.00;99589.28;4981788;28;19926;-90
2022/07/31 13:26:44;;;;;;;;;;;;;;;12.10;100.00;99599.16;4986043;28;19964;-90
2022/07/31 13:29:09;;;;;;;;;;;;;;;12.25;100.00;99580.69;4985734;28;19965;-90
2022/07/31 13:31:38;;;;;;;;;;;;;;;12.25;100.00;99586.00;4985353;28;19929;-90
2022/07/31 13:34:03;;;;;;;;;;;;;;;12.01;100.00;99575.72;4967598;28;20409;-90
2022/07/31 13:36:28;;;;;;;;;;;;;;;12.33;100.00;99583.78;4966683;28;19921;-90
2022/07/31 13:38:55;;;;;;;;;;;;;;;12.15;100.00;99575.84;4985980;28;19918;-92
2022/07/31 13:41:41;;;;;;;;;;;;;;;12.02;100.00;99588.06;4968064;28;20377;-90
2022/07/31 13:44:44;;;;;;;;;;;;;;;12.11;100.00;99576.97;4998855;28;19981;-90
2022/07/31 13:47:09;;;;;;;;;;;;;;;12.25;100.00;99578.88;4980522;28;19960;-90
2022/07/31 13:49:35;;;;;;;;;;;;;;;12.21;100.00;99579.16;4968298;28;19957;-91
2022/07/31 13:52:01;;;;;;;;;;;;;;;12.01;100.00;99574.88;4984119;28;19957;-90
2022/07/31 13:54:27;;;;;;;;;;;;;;;12.08;100.00;99570.97;4968082;28;19957;-90
2022/07/31 13:57:21;;;;;;;;;;;;;;;12.26;100.00;99569.97;4967545;28;20009;-89
2022/07/31 14:00:19;;;;;;;;;;;;;;;12.14;100.00;99570.63;4951521;28;20427;-90
2022/07/31 14:02:45;;;;;;;;;;;;;;;12.06;100.00;99580.78;4982331;28;19918;-91
2022/07/31 14:05:13;;;;;;;;;;;;;;;11.94;100.00;99561.06;4985019;28;20008;-90
2022/07/31 14:07:39;;;;;;;;;;;;;;;12.14;100.00;99571.50;4983502;28;20357;-87
2022/07/31 14:10:13;;;;;;;;;;;;;;;12.04;100.00;99567.59;4967340;28;19945;-89
2022/07/31 14:12:38;;;;;;;;;;;;;;;11.91;100.00;99569.16;4966968;28;19926;-90
2022/07/31 14:15:05;;;;;;;;;;;;;;;11.95;100.00;99560.09;4967329;28;20431;-90
2022/07/31 14:17:30;;;;;;;;;;;;;;;12.10;100.00;99561.97;4984678;28;19925;-90
2022/07/31 14:23:06;;;;;;;;;;;;;;;11.94;100.00;99566.38;4922601;29;20374;-90
2022/07/31 14:25:35;;;;;;;;;;;;;;;11.86;100.00;99565.88;4983758;28;19918;-90
2022/07/31 14:28:35;;;;;;;;;;;;;;;12.02;100.00;99569.50;4983009;28;19932;-88
2022/07/31 14:31:00;;;;;;;;;;;;;;;12.16;100.00;99561.66;4953511;28;19922;-90
2022/07/31 14:33:26;;;;;;;;;;;;;;;12.16;100.00;99552.84;4967158;28;19964;-89
2022/07/31 14:35:51;;;;;;;;;;;;;;;11.93;100.00;99568.16;4984269;28;20366;-90
2022/07/31 14:38:39;;;;;;;;;;;;;;;11.92;100.00;99552.34;4965535;28;19930;-88
2022/07/31 14:41:05;;;;;;;;;;;;;;;12.15;100.00;99553.75;4984203;28;19922;-88
2022/07/31 14:43:34;;;;;;;;;;;;;;;12.07;100.00;99561.28;4983908;28;20005;-89
2022/07/31 14:45:59;;;;;;;;;;;;;;;11.99;100.00;99559.03;4984746;28;20384;-86
2022/07/31 14:48:26;;;;;;;;;;;;;;;11.80;100.00;99557.28;4984397;28;19926;-87
2022/07/31 14:50:51;;;;;;;;;;;;;;;12.03;100.00;99560.59;4983811;28;19957;-87
2022/07/31 14:53:25;;;;;;;;;;;;;;;11.96;100.00;99561.84;4965195;28;19943;-90
2022/07/31 14:55:50;;;;;;;;;;;;;;;11.85;100.00;99554.38;4982918;28;19925;-89
2022/07/31 14:58:24;;;;;;;;;;;;;;;11.81;100.00;99537.78;4984519;28;20013;-88
2022/07/31 15:00:53;;;;;;;;;;;;;;;12.04;100.00;99551.66;4966844;28;20008;-88
2022/07/31 15:03:25;;;;;;;;;;;;;;;11.88;100.00;99550.72;4997747;28;19973;-89
2022/07/31 15:05:57;;;;;;;;;;;;;;;11.82;100.00;99551.88;4964522;28;20382;-88
2022/07/31 15:08:41;;;;;;;;;;;;;;;;;;;;;
2022/07/31 15:11:07;;;;;;;;;;;;;;;12.04;100.00;99558.78;4983027;28;19928;-89
2022/07/31 15:13:32;;;;;;;;;;;;;;;11.99;100.00;99559.88;4983158;28;20016;-89
2022/07/31 15:15:58;;;;;;;;;;;;;;;11.81;100.00;99556.34;4982771;28;19968;-90
2022/07/31 15:18:32;;;;;;;;;;;;;;;11.81;100.00;99553.69;4965222;28;19921;-89
2022/07/31 15:21:18;;;;;;;;;;;;;;;11.97;100.00;99555.59;4965122;28;20369;-90
2022/07/31 15:24:16;;;;;;;;;;;;;;;;;;;;;
2022/07/31 15:30:22;;;;;;;;;;;;;;;11.86;100.00;99550.81;4982957;28;20000;-93
2022/07/31 15:32:50;;;;;;;;;;;;;;;11.84;100.00;99563.31;4971295;28;20013;-92
2022/07/31 15:35:21;;;;;;;;;;;;;;;11.80;100.00;99561.75;4981933;28;19988;-90
2022/07/31 15:38:14;;;;;;;;;;;;;;;;;;;;;
2022/07/31 15:40:45;;;;;;;;;;;;;;;12.02;100.00;99558.88;5051443;28;19927;-91
2022/07/31 15:43:38;;;;;;;;;;;;;;;11.98;100.00;99552.88;5033746;28;19925;-91
2022/07/31 15:49:46;;;;;;;;;;;;;;;;;;;;;
2022/07/31 15:52:11;;;;;;;;;;;;;;;11.77;100.00;99549.47;4987536;23;19923;-91
2022/07/31 15:55:12;;;;;;;;;;;;;;;12.11;100.00;99549.53;5011424;28;20023;-92
2022/07/31 15:57:37;;;;;;;;;;;;;;;12.04;100.00;99540.19;5011638;28;20012;-91
2022/07/31 16:00:51;;;;;;;;;;;;;;;11.92;100.00;99542.56;5019828;28;20167;-90
2022/07/31 16:03:16;;;;;;;;;;;;;;;11.87;100.00;99533.06;4992704;28;19927;-92
2022/07/31 16:05:42;;;;;;;;;;;;;;;11.82;100.00;99543.94;5013220;28;19917;-91
2022/07/31 16:08:07;;;;;;;;;;;;;;;12.15;100.00;99540.47;5020106;28;19976;-91
2022/07/31 16:10:58;;;;;;;;;;;;;;;11.90;100.00;99543.53;5026096;23;19943;-91
2022/07/31 16:16:35;;;;;;;;;;;;;;;11.84;100.00;99538.53;5199747;23;19979;-91
2022/07/31 16:19:00;;;;;;;;;;;;;;;11.82;100.00;99542.16;5032945;28;19916;-90
2022/07/31 16:21:26;;;;;;;;;;;;;;;12.01;100.00;99538.56;5049885;28;20388;-94
2022/07/31 16:23:51;;;;;;;;;;;;;;;11.94;100.00;99530.06;5050930;28;19966;-91
2022/07/31 16:28:54;;;;;;;;;;;;;;;11.88;100.00;99529.50;5245917;23;20427;-91
2022/07/31 16:31:19;;;;;;;;;;;;;;;12.03;100.00;99535.81;5406507;23;20405;-90
2022/07/31 16:33:47;;;;;;;;;;;;;;;11.96;100.00;99532.63;5039305;28;19921;-91
2022/07/31 16:36:48;;;;;;;;;;;;;;;;;;;;;
2022/07/31 16:39:21;;;;;;;;;;;;;;;11.89;100.00;99528.56;5040521;28;19917;-91
2022/07/31 16:41:49;;;;;;;;;;;;;;;12.13;100.00;99524.63;5039615;28;19916;-91
2022/07/31 16:56:55;;;;;;;;;;;;;;;12.04;100.00;99530.41;4923252;29;19920;-91
2022/07/31 17:00:14;;;;;;;;;;;;;;;12.15;100.00;99527.22;5425227;23;19980;-91
2022/07/31 17:02:42;;;;;;;;;;;;;;;12.15;100.00;99527.22;4944563;29;19990;-91
2022/07/31 17:05:07;;;;;;;;;;;;;;;11.98;100.00;99528.97;4937801;29;19919;-91
2022/07/31 17:07:33;;;;;;;;;;;;;;;12.16;100.00;99532.44;4976562;28;19996;-90
2022/07/31 17:13:02;;;;;;;;;;;;;;;12.11;100.00;99520.31;5000689;28;20015;-91
2022/07/31 17:15:27;;;;;;;;;;;;;;;12.00;100.00;99531.53;5024290;28;20011;-91
2022/07/31 17:17:53;;;;;;;;;;;;;;;12.30;100.00;99526.38;5024680;28;19921;-88
2022/07/31 17:20:47;;;;;;;;;;;;;;;12.13;100.00;99524.63;5021955;28;19978;-92
2022/07/31 17:23:16;;;;;;;;;;;;;;;11.96;100.00;99529.97;5026772;23;19926;-92
2022/07/31 17:26:08;;;;;;;;;;;;;;;12.00;100.00;99528.88;4993450;28;19933;-92
2022/07/31 17:35:05;;;;;;;;;;;;;;;12.09;100.00;99532.84;5015496;23;20012;-92
2022/07/31 17:37:43;;;;;;;;;;;;;;;;;;;;;
2022/07/31 17:55:26;;;;;;;;;;;;;;;12.11;100.00;99553.06;5003081;28;20040;-89
2022/07/31 18:01:30;;;;;;;;;;;;;;;12.02;100.00;99553.56;4952180;28;19922;-91
2022/07/31 18:04:07;;;;;;;;;;;;;;;12.27;100.00;99565.53;4914154;29;19927;-92
2022/07/31 18:17:39;;;;;;;;;;;;;;;12.29;100.00;99568.97;5245201;23;19929;-90
2022/07/31 18:23:44;;;;;;;;;;;;;;;12.10;100.00;99559.31;5048287;23;20342;-93
2022/07/31 18:26:36;;;;;;;;;;;;;;;;;;;;;
2022/07/31 18:32:04;;;;;;;;;;;;;;;12.22;100.00;99567.56;5136754;23;19932;-92
2022/07/31 18:38:02;;;;;;;;;;;;;;;12.00;100.00;99568.72;5056151;28;20028;-92
2022/07/31 18:45:34;;;;;;;;;;;;;;;12.11;100.00;99568.13;5024919;28;20871;-91
2022/07/31 18:56:00;;;;;;;;;;;;;;;12.06;100.00;99575.50;5183049;23;20451;-90
2022/07/31 19:04:05;;;;;;;;;;;;;;;12.21;100.00;99579.16;5297891;23;19975;-90
2022/07/31 19:06:52;;;;;;;;;;;;;;;12.02;100.00;99580.09;5026023;28;19931;-90
2022/07/31 19:09:27;;;;;;;;;;;;;;;11.97;100.00;99582.16;5026982;28;20330;-91
2022/07/31 19:11:53;;;;;;;;;;;;;;;12.25;100.00;99586.84;5026677;23;19929;-91
2022/07/31 19:17:38;;;;;;;;;;;;;;;12.20;100.00;99588.06;5101356;23;19987;-90
2022/07/31 19:20:10;;;;;;;;;;;;;;;11.97;100.00;99588.31;5014590;23;19926;-90
2022/07/31 19:22:35;;;;;;;;;;;;;;;12.23;100.00;99596.72;4981722;28;20278;-90
2022/07/31 19:25:00;;;;;;;;;;;;;;;12.18;100.00;99599.59;4974843;28;19949;-91
2022/07/31 19:33:32;;;;;;;;;;;;;;;12.13;100.00;99604.31;5270707;23;19935;-91
2022/07/31 19:38:36;;;;;;;;;;;;;;;12.12;100.00;99607.03;5291219;23;19930;-92
2022/07/31 19:46:15;;;;;;;;;;;;;;;12.18;100.00;99612.03;5031595;23;19925;-91
2022/07/31 19:48:47;;;;;;;;;;;;;;;11.99;100.00;99622.75;5033695;28;19924;-90
2022/07/31 19:54:08;;;;;;;;;;;;;;;12.21;100.00;99625.16;5038031;23;20051;-90
2022/07/31 19:56:46;;;;;;;;;;;;;;;12.10;100.00;99628.38;5012816;28;20391;-90
2022/07/31 19:59:33;;;;;;;;;;;;;;;11.94;100.00;99628.28;5012041;28;20320;-90
2022/07/31 20:01:58;;;;;;;;;;;;;;;12.03;100.00;99632.28;5102824;23;20423;-89
2022/07/31 20:04:26;;;;;;;;;;;;;;;12.22;100.00;99639.28;5023675;28;20130;-89
2022/07/31 20:06:52;;;;;;;;;;;;;;;12.04;100.00;99638.44;5023491;28;19917;-90
2022/07/31 20:12:34;;;;;;;;;;;;;;;12.13;100.00;99645.94;5150927;23;19926;-91
2022/07/31 20:15:01;;;;;;;;;;;;;;;12.22;100.00;99645.47;4992651;28;19929;-89
2022/07/31 20:17:27;;;;;;;;;;;;;;;12.08;100.00;99648.00;5010708;28;19931;-89
2022/07/31 20:28:48;;;;;;;;;;;;;;;12.04;100.00;99649.06;5033619;28;19927;-90
2022/07/31 20:31:16;;;;;;;;;;;;;;;12.06;100.00;99652.50;4997400;28;19926;-90
2022/07/31 20:33:41;;;;;;;;;;;;;;;11.89;100.00;99656.84;4991370;28;20361;-91
2022/07/31 20:36:08;;;;;;;;;;;;;;;11.81;100.00;99656.38;4987065;28;19976;-90
2022/07/31 20:38:34;;;;;;;;;;;;;;;12.02;100.00;99657.13;4987526;28;19924;-92
2022/07/31 20:40:59;;;;;;;;;;;;;;;11.94;100.00;99664.63;4983496;28;19925;-91
2022/07/31 20:43:26;;;;;;;;;;;;;;;11.82;100.00;99658.97;4992345;28;20557;-90
2022/07/31 20:46:03;;;;;;;;;;;;;;;11.93;100.00;99665.53;5002121;23;19929;-94
2022/07/31 20:57:11;;;;;;;;;;;;;;;;;;;;;
2022/07/31 20:59:36;;;;;;;;;;;;;;;11.80;100.00;99663.47;5056442;28;19921;-90
2022/07/31 21:02:04;;;;;;;;;;;;;;;11.98;100.00;99668.81;5039051;28;20319;-89
2022/07/31 21:04:34;;;;;;;;;;;;;;;12.01;100.00;99668.66;5055091;28;20008;-90
2022/07/31 21:08:05;;;;;;;;;;;;;;;11.98;100.00;99674.13;5051441;28;19943;-90
2022/07/31 21:10:27;;;;;;;;;;;;;;;11.97;100.00;99672.44;5033141;28;19921;-90
2022/07/31 21:12:53;;;;;;;;;;;;;;;11.91;100.00;99678.00;5061986;28;19935;-91
2022/07/31 21:15:18;;;;;;;;;;;;;;;12.09;100.00;99677.09;5045535;28;19920;-91
2022/07/31 21:21:14;;;;;;;;;;;;;;;12.00;100.00;99682.91;5045403;28;20038;-92
